createdAt,value
2022-11-18T00:01:13.304Z,28.03
2022-11-18T00:06:35.645Z,30.23
2022-11-18T00:12:16.479Z,27.93
2022-11-18T00:17:38.727Z,26.70
2022-11-18T00:23:01.177Z,27.27
2022-11-18T00:28:23.412Z,26.03
2022-11-18T00:33:45.868Z,25.37
2022-11-18T00:39:10.761Z,26.77
2022-11-18T00:44:33.859Z,28.90
2022-11-18T00:49:56.153Z,27.03
2022-11-18T00:55:18.265Z,30.50
2022-11-18T01:00:42.090Z,24.37
2022-11-18T01:06:04.458Z,23.67
2022-11-18T01:11:45.809Z,27.83
2022-11-18T01:17:08.560Z,29.27
2022-11-18T01:22:31.076Z,26.63
2022-11-18T01:27:53.489Z,27.93
2022-11-18T01:33:15.739Z,31.50
2022-11-18T01:38:38.288Z,29.27
2022-11-18T01:44:06.171Z,26.50
2022-11-18T01:49:28.576Z,26.97
2022-11-18T01:54:57.577Z,28.43
2022-11-18T02:00:20.009Z,24.60
2022-11-18T02:05:44.337Z,30.77
2022-11-18T02:11:31.420Z,31.93
2022-11-18T02:17:21.481Z,27.57
2022-11-18T02:23:21.483Z,27.93
2022-11-18T02:29:05.207Z,30.47
2022-11-18T02:34:42.309Z,33.10
2022-11-18T02:40:14.128Z,29.63
2022-11-18T02:45:39.476Z,31.63
2022-11-18T02:51:07.267Z,31.47
2022-11-18T02:56:31.061Z,35.37
2022-11-18T03:01:53.187Z,33.23
2022-11-18T03:07:22.252Z,29.40
2022-11-18T03:13:13.039Z,33.50
2022-11-18T03:19:18.155Z,31.97
2022-11-18T03:24:52.105Z,27.33
2022-11-18T03:30:19.205Z,32.27
2022-11-18T03:35:46.156Z,34.87
2022-11-18T03:41:11.755Z,32.60
2022-11-18T03:46:39.522Z,36.80
2022-11-18T03:52:10.148Z,33.33
2022-11-18T03:57:57.237Z,33.70
2022-11-18T04:03:19.470Z,33.10
2022-11-18T04:08:46.273Z,36.20
2022-11-18T04:14:13.761Z,36.40
2022-11-18T04:19:37.013Z,33.17
2022-11-18T04:24:59.313Z,36.07
2022-11-18T04:30:22.038Z,39.93
2022-11-18T04:35:46.944Z,42.67
2022-11-18T04:41:09.424Z,44.17
2022-11-18T04:46:31.508Z,44.67
2022-11-18T04:51:54.838Z,40.40
2022-11-18T04:57:17.406Z,41.37
2022-11-18T05:02:40.010Z,42.60
2022-11-18T05:08:02.152Z,43.70
2022-11-18T05:13:24.752Z,37.17
2022-11-18T05:18:46.955Z,44.67
2022-11-18T05:24:09.479Z,35.30
2022-11-18T05:29:31.780Z,34.73
2022-11-18T05:34:54.251Z,41.30
2022-11-18T05:40:16.884Z,33.33
2022-11-18T05:45:40.065Z,36.13
2022-11-18T05:51:02.447Z,29.77
2022-11-18T05:56:41.077Z,32.87
2022-11-18T06:02:12.480Z,34.47
2022-11-18T06:07:34.722Z,33.43
2022-11-18T06:13:00.638Z,28.47
2022-11-18T06:18:29.044Z,29.60
2022-11-18T06:23:51.643Z,32.60
2022-11-18T06:29:18.705Z,30.33
2022-11-18T06:34:43.920Z,30.10
2022-11-18T06:40:06.607Z,31.30
2022-11-18T06:45:29.168Z,26.57
2022-11-18T06:50:51.674Z,29.60
2022-11-18T06:56:16.332Z,32.20
2022-11-18T07:01:41.375Z,25.70
2022-11-18T07:07:03.608Z,31.13
2022-11-18T07:12:26.256Z,30.20
2022-11-18T07:17:48.448Z,31.43
2022-11-18T07:23:10.993Z,38.67
2022-11-18T07:28:33.707Z,30.37
2022-11-18T07:33:56.586Z,34.90
2022-11-18T07:39:19.018Z,34.13
2022-11-18T07:44:41.238Z,33.20
2022-11-18T07:50:05.295Z,30.73
2022-11-18T07:55:31.999Z,27.10
2022-11-18T08:00:54.713Z,31.43
2022-11-18T08:06:19.356Z,29.07
2022-11-18T08:11:41.493Z,37.33
2022-11-18T08:17:03.841Z,32.70
2022-11-18T08:22:26.267Z,25.63
2022-11-18T08:27:48.573Z,25.77
2022-11-18T08:33:10.998Z,24.17
2022-11-18T08:38:33.313Z,30.33
2022-11-18T08:43:55.783Z,27.50
2022-11-18T08:49:18.491Z,28.10
2022-11-18T08:54:41.164Z,31.90
2022-11-18T09:00:05.265Z,27.20
2022-11-18T09:05:27.525Z,22.57
2022-11-18T09:10:50.274Z,26.70
2022-11-18T09:16:13.200Z,19.27
2022-11-18T09:21:39.689Z,15.10
2022-11-18T09:27:05.312Z,14.13
2022-11-18T09:32:27.672Z,16.17
2022-11-18T09:37:49.993Z,16.97
2022-11-18T09:43:41.692Z,13.33
2022-11-18T09:49:14.809Z,13.17
2022-11-18T09:54:38.296Z,17.07
2022-11-18T10:00:01.354Z,10.83
2022-11-18T10:05:27.204Z,13.17
2022-11-18T10:11:20.632Z,12.53
2022-11-18T10:16:58.002Z,11.50
2022-11-18T10:22:33.106Z,14.90
2022-11-18T10:27:56.814Z,15.83
2022-11-18T10:33:21.977Z,12.60
2022-11-18T10:38:49.671Z,13.70
2022-11-18T10:44:41.116Z,14.90
2022-11-18T10:50:29.021Z,10.77
2022-11-18T10:56:01.189Z,13.30
2022-11-18T11:01:25.722Z,16.13
2022-11-18T11:06:48.371Z,14.13
2022-11-18T11:12:17.940Z,13.20
2022-11-18T11:18:08.602Z,14.10
2022-11-18T11:23:31.816Z,13.87
2022-11-18T11:29:34.498Z,17.00
2022-11-18T11:35:15.155Z,8.97
2022-11-18T11:40:44.379Z,14.37
2022-11-18T11:46:35.548Z,9.83
2022-11-18T11:52:17.497Z,12.23
2022-11-18T11:57:39.941Z,14.07
2022-11-18T12:03:11.174Z,11.33
2022-11-18T12:08:34.312Z,11.87
2022-11-18T12:14:05.601Z,13.73
2022-11-18T12:19:27.807Z,12.50
2022-11-18T12:24:49.936Z,9.83
2022-11-18T12:30:18.908Z,10.97
2022-11-18T12:35:48.874Z,10.90
2022-11-18T12:41:59.563Z,10.30
2022-11-18T12:47:37.392Z,9.53
2022-11-18T12:52:59.967Z,9.43
2022-11-18T12:58:26.924Z,7.73
2022-11-18T13:03:49.521Z,8.60
2022-11-18T13:09:21.473Z,9.77
2022-11-18T13:15:03.680Z,12.93
2022-11-18T13:20:33.453Z,16.73
2022-11-18T13:26:11.932Z,7.93
2022-11-18T13:31:34.211Z,7.63
2022-11-18T13:36:58.929Z,10.57
2022-11-18T13:42:27.076Z,9.47
2022-11-18T13:47:52.322Z,10.00
2022-11-18T13:53:38.274Z,7.47
2022-11-18T13:59:18.538Z,6.53
2022-11-18T14:04:57.084Z,9.80
2022-11-18T14:10:31.394Z,4.90
2022-11-18T14:16:22.706Z,3.77
2022-11-18T14:21:45.966Z,4.60
2022-11-18T14:27:38.145Z,8.77
2022-11-18T14:33:22.261Z,3.50
2022-11-18T14:39:19.414Z,5.23
2022-11-18T14:44:32.404Z,3.37
2022-11-18T14:49:54.678Z,4.40
2022-11-18T14:55:17.353Z,6.67
2022-11-18T15:00:41.825Z,38.30
2022-11-18T15:06:04.409Z,69.33
2022-11-18T15:11:26.525Z,79.20
2022-11-18T15:16:48.849Z,59.93
2022-11-18T15:22:11.033Z,68.63
2022-11-18T15:27:34.252Z,14.03
2022-11-18T15:32:57.168Z,13.77
2022-11-18T15:38:19.561Z,17.63
2022-11-18T15:43:42.078Z,10.93
2022-11-18T15:49:04.619Z,15.13
2022-11-18T15:54:26.859Z,17.30
2022-11-18T15:59:49.206Z,19.57
2022-11-18T16:05:11.486Z,19.13
2022-11-18T16:10:52.460Z,29.60
2022-11-18T16:16:23.360Z,16.07
2022-11-18T16:21:51.300Z,8.87
2022-11-18T16:27:13.640Z,14.17
2022-11-18T16:32:36.041Z,14.67
2022-11-18T16:37:58.126Z,13.77
2022-11-18T16:43:20.559Z,19.00
2022-11-18T16:48:42.764Z,13.73
2022-11-18T16:54:09.834Z,18.63
2022-11-18T16:59:32.205Z,22.23
2022-11-18T17:04:54.521Z,20.70
2022-11-18T17:10:19.894Z,24.90
2022-11-18T17:15:42.118Z,27.40
2022-11-18T17:21:07.160Z,38.53
2022-11-18T17:26:29.613Z,31.27
2022-11-18T17:31:53.785Z,25.80
2022-11-18T17:37:16.091Z,31.23
2022-11-18T17:42:38.756Z,26.17
2022-11-18T17:48:01.221Z,34.90
2022-11-18T17:53:23.568Z,44.00
2022-11-18T17:58:46.744Z,44.97
2022-11-18T18:04:08.881Z,38.70
2022-11-18T18:09:31.599Z,32.83
2022-11-18T18:14:54.244Z,28.10
2022-11-18T18:20:16.982Z,31.80
2022-11-18T18:25:39.265Z,32.43
2022-11-18T18:31:04.581Z,34.43
2022-11-18T18:36:27.538Z,43.70
2022-11-18T18:41:49.965Z,45.07
2022-11-18T18:47:12.294Z,38.10
2022-11-18T18:52:34.759Z,38.00
2022-11-18T18:57:57.290Z,37.10
2022-11-18T19:03:19.524Z,43.40
2022-11-18T19:08:41.880Z,42.37
2022-11-18T19:14:07.426Z,51.17
2022-11-18T19:19:48.368Z,40.53
2022-11-18T19:25:10.569Z,48.93
2022-11-18T19:30:33.127Z,37.80
2022-11-18T19:35:55.736Z,34.27
2022-11-18T19:41:17.996Z,45.20
2022-11-18T19:46:40.684Z,38.53
2022-11-18T19:52:03.462Z,61.87
2022-11-18T19:57:25.893Z,64.50
2022-11-18T20:02:48.422Z,57.63
2022-11-18T20:08:10.674Z,57.03
2022-11-18T20:13:33.448Z,77.07
2022-11-18T20:19:05.008Z,59.07
2022-11-18T20:24:30.108Z,54.50
2022-11-18T20:29:52.657Z,58.80
2022-11-18T20:35:15.364Z,57.37
2022-11-18T20:40:37.864Z,67.60
2022-11-18T20:46:01.202Z,39.47
2022-11-18T20:51:28.539Z,56.23
2022-11-18T20:56:50.667Z,53.73
2022-11-18T21:02:13.136Z,50.43
2022-11-18T21:07:35.632Z,44.50
2022-11-18T21:13:16.786Z,44.20
2022-11-18T21:18:39.196Z,39.97
2022-11-18T21:24:02.550Z,39.07
2022-11-18T21:29:27.448Z,34.47
2022-11-18T21:34:49.768Z,32.07
2022-11-18T21:40:12.500Z,31.27
2022-11-18T21:45:34.985Z,35.13
2022-11-18T21:51:01.457Z,43.77
2022-11-18T21:56:28.361Z,36.00
2022-11-18T22:01:51.068Z,34.77
2022-11-18T22:07:13.410Z,29.97
2022-11-18T22:12:35.965Z,34.23
2022-11-18T22:17:58.179Z,42.20
2022-11-18T22:23:21.682Z,34.67
2022-11-18T22:28:44.299Z,44.77
2022-11-18T22:34:06.661Z,38.43
2022-11-18T22:39:29.284Z,41.03
2022-11-18T22:44:51.416Z,49.37
2022-11-18T22:50:13.989Z,28.47
2022-11-18T22:55:36.197Z,33.03
2022-11-18T23:01:12.899Z,31.77
2022-11-18T23:06:35.409Z,25.80
2022-11-18T23:12:15.909Z,35.63
2022-11-18T23:17:38.645Z,34.63
2022-11-18T23:23:01.078Z,30.93
2022-11-18T23:28:23.236Z,33.67
2022-11-18T23:33:46.428Z,36.07
2022-11-18T23:39:09.071Z,37.20
2022-11-18T23:44:46.264Z,35.23
2022-11-18T23:50:08.660Z,37.63
2022-11-18T23:55:31.268Z,26.27
